createdAt,value
2023-02-12T00:00:30.490Z,39.10
2023-02-12T00:01:13.438Z,37.97
2023-02-12T00:01:53.555Z,39.50
2023-02-12T00:02:32.577Z,38.57
2023-02-12T00:03:12.133Z,38.27
2023-02-12T00:04:41.610Z,38.40
2023-02-12T00:05:25.237Z,36.77
2023-02-12T00:06:09.184Z,39.20
2023-02-12T00:07:51.394Z,38.83
2023-02-12T00:08:30.264Z,39.67
2023-02-12T00:09:22.417Z,40.10
2023-02-12T00:10:02.548Z,41.13
2023-02-12T00:11:33.523Z,40.30
2023-02-12T00:12:13.842Z,40.43
2023-02-12T00:13:31.656Z,39.73
2023-02-12T00:14:14.325Z,39.87
2023-02-12T00:15:32.550Z,38.87
2023-02-12T00:16:16.844Z,40.40
2023-02-12T00:17:04.451Z,40.67
2023-02-12T00:17:44.508Z,40.70
2023-02-12T00:18:26.590Z,42.57
2023-02-12T00:19:14.521Z,41.50
2023-02-12T00:19:53.742Z,41.20
2023-02-12T00:20:34.080Z,42.77
2023-02-12T00:21:38.112Z,42.80
2023-02-12T00:22:56.988Z,42.57
2023-02-12T00:24:16.885Z,41.70
2023-02-12T00:24:59.612Z,41.10
2023-02-12T00:25:42.034Z,42.10
2023-02-12T00:26:25.295Z,42.67
2023-02-12T00:27:04.478Z,42.60
2023-02-12T00:27:43.547Z,42.70
2023-02-12T00:28:30.359Z,41.03
2023-02-12T00:29:33.974Z,40.27
2023-02-12T00:31:56.489Z,40.63
2023-02-12T00:33:22.452Z,39.33
2023-02-12T00:34:02.217Z,38.97
2023-02-12T00:34:41.555Z,38.30
2023-02-12T00:35:20.764Z,38.50
2023-02-12T00:36:02.801Z,37.43
2023-02-12T00:36:43.014Z,36.40
2023-02-12T00:37:22.622Z,37.27
2023-02-12T00:38:09.425Z,35.83
2023-02-12T00:38:53.092Z,36.37
2023-02-12T00:39:31.803Z,34.37
2023-02-12T00:40:23.515Z,34.77
2023-02-12T00:41:29.493Z,35.13
2023-02-12T00:43:13.452Z,33.00
2023-02-12T00:44:34.694Z,31.60
2023-02-12T00:45:15.755Z,33.03
2023-02-12T00:46:54.736Z,31.93
2023-02-12T00:48:07.949Z,32.03
2023-02-12T00:48:47.870Z,31.43
2023-02-12T00:49:26.638Z,32.47
2023-02-12T00:50:33.336Z,33.43
2023-02-12T00:51:15.980Z,33.83
2023-02-12T00:52:04.238Z,33.63
2023-02-12T00:52:43.536Z,34.27
2023-02-12T00:53:23.581Z,33.73
2023-02-12T00:54:27.089Z,34.77
2023-02-12T00:56:09.490Z,34.80
2023-02-12T00:56:48.206Z,32.77
2023-02-12T00:57:37.411Z,32.20
2023-02-12T00:58:18.991Z,33.53
2023-02-12T00:58:59.536Z,32.47
2023-02-12T00:59:42.993Z,33.40
2023-02-12T01:00:23.724Z,32.50
2023-02-12T01:01:04.456Z,33.03
2023-02-12T01:01:43.697Z,32.30
2023-02-12T01:02:25.861Z,32.77
2023-02-12T01:03:06.041Z,34.40
2023-02-12T01:03:46.611Z,32.90
2023-02-12T01:04:24.890Z,32.87
2023-02-12T01:05:41.612Z,32.23
2023-02-12T01:06:58.916Z,31.63
2023-02-12T01:08:28.190Z,33.67
2023-02-12T01:09:08.955Z,33.67
2023-02-12T01:10:26.826Z,32.17
2023-02-12T01:12:09.343Z,32.50
2023-02-12T01:15:06.938Z,33.70
2023-02-12T01:16:22.887Z,33.60
2023-02-12T01:17:09.404Z,33.70
2023-02-12T01:17:53.319Z,33.83
2023-02-12T01:19:37.611Z,34.53
2023-02-12T01:21:02.404Z,32.47
2023-02-12T01:21:41.627Z,32.93
2023-02-12T01:22:21.629Z,32.80
2023-02-12T01:23:02.643Z,34.07
2023-02-12T01:24:37.609Z,33.67
2023-02-12T01:25:20.136Z,34.40
2023-02-12T01:26:24.776Z,33.40
2023-02-12T01:27:53.298Z,34.17
2023-02-12T01:28:34.089Z,33.43
2023-02-12T01:30:51.616Z,33.03
2023-02-12T01:31:35.909Z,33.00
2023-02-12T01:32:15.671Z,33.03
2023-02-12T01:32:55.664Z,33.27
2023-02-12T01:33:39.359Z,33.17
2023-02-12T01:34:26.514Z,32.63
2023-02-12T01:35:10.516Z,31.40
2023-02-12T01:35:49.544Z,31.60
2023-02-12T01:36:53.288Z,32.60
2023-02-12T01:38:12.155Z,33.03
2023-02-12T01:38:52.335Z,31.43
2023-02-12T01:39:31.905Z,30.10
2023-02-12T01:42:19.624Z,30.00
2023-02-12T01:43:12.372Z,30.30
2023-02-12T01:45:36.877Z,33.33
2023-02-12T01:46:41.765Z,32.03
2023-02-12T01:48:01.161Z,30.83
2023-02-12T01:48:50.482Z,31.13
2023-02-12T01:50:50.869Z,30.53
2023-02-12T01:52:55.029Z,29.30
2023-02-12T01:53:43.630Z,29.37
2023-02-12T01:54:26.738Z,29.37
2023-02-12T01:56:24.299Z,29.57
2023-02-12T01:57:08.250Z,29.60
2023-02-12T01:57:50.298Z,29.17
2023-02-12T01:58:56.458Z,28.33
2023-02-12T02:01:05.039Z,28.10
2023-02-12T02:03:54.779Z,29.13
2023-02-12T02:04:46.579Z,28.37
2023-02-12T02:05:50.223Z,28.20
2023-02-12T02:07:12.155Z,28.83
2023-02-12T02:09:11.026Z,27.13
2023-02-12T02:09:50.472Z,26.73
2023-02-12T02:10:31.165Z,25.60
2023-02-12T02:11:30.207Z,25.50
2023-02-12T02:12:41.270Z,25.40
2023-02-12T02:14:26.885Z,24.57
2023-02-12T02:15:07.139Z,25.10
2023-02-12T02:16:15.598Z,24.57
2023-02-12T02:17:10.181Z,24.50
2023-02-12T02:18:18.543Z,24.63
2023-02-12T02:19:22.258Z,24.03
2023-02-12T02:20:04.264Z,23.83
2023-02-12T02:21:11.794Z,24.10
2023-02-12T02:22:18.841Z,23.30
2023-02-12T02:23:07.418Z,22.77
2023-02-12T02:24:17.030Z,23.23
2023-02-12T02:26:25.255Z,22.43
2023-02-12T02:27:19.015Z,21.87
2023-02-12T02:29:06.099Z,21.63
2023-02-12T02:29:46.887Z,21.20
2023-02-12T02:30:57.809Z,21.83
2023-02-12T02:32:12.865Z,22.67
2023-02-12T02:33:06.199Z,22.13
2023-02-12T02:34:22.077Z,20.17
2023-02-12T02:36:09.914Z,20.43
2023-02-12T02:37:04.352Z,19.00
2023-02-12T02:37:57.440Z,19.27
2023-02-12T02:39:01.024Z,19.73
2023-02-12T02:41:38.270Z,20.80
2023-02-12T02:42:57.528Z,20.50
2023-02-12T02:43:45.978Z,20.07
2023-02-12T02:44:25.388Z,20.23
2023-02-12T02:45:19.404Z,20.83
2023-02-12T02:45:59.378Z,19.10
2023-02-12T02:46:48.791Z,19.03
2023-02-12T02:47:52.699Z,20.23
2023-02-12T02:49:20.025Z,19.27
2023-02-12T02:50:43.911Z,20.07
2023-02-12T02:52:12.688Z,19.90
2023-02-12T02:53:06.354Z,20.10
2023-02-12T02:54:00.244Z,19.40
2023-02-12T02:56:35.530Z,19.90
2023-02-12T02:58:17.156Z,18.67
2023-02-12T02:59:26.884Z,19.43
2023-02-12T03:02:27.330Z,18.77
2023-02-12T03:03:24.662Z,19.07
2023-02-12T03:06:42.285Z,16.70
2023-02-12T03:07:41.158Z,17.70
2023-02-12T03:09:10.185Z,17.07
2023-02-12T03:10:02.615Z,18.30
2023-02-12T03:11:31.615Z,17.13
2023-02-12T03:14:14.866Z,17.70
2023-02-12T03:14:57.835Z,18.13
2023-02-12T03:15:44.406Z,18.00
2023-02-12T03:16:24.396Z,18.23
2023-02-12T03:17:30.441Z,17.83
2023-02-12T03:18:36.286Z,17.87
2023-02-12T03:19:16.193Z,17.63
2023-02-12T03:20:31.125Z,17.53
2023-02-12T03:22:00.736Z,17.20
2023-02-12T03:24:13.537Z,17.73
2023-02-12T03:25:09.715Z,17.93
2023-02-12T03:26:15.515Z,17.07
2023-02-12T03:28:31.614Z,17.87
2023-02-12T03:29:49.737Z,17.47
2023-02-12T03:30:51.539Z,17.87
2023-02-12T03:31:42.300Z,18.03
2023-02-12T03:32:43.825Z,17.23
2023-02-12T03:33:58.366Z,17.83
2023-02-12T03:34:59.150Z,17.63
2023-02-12T03:39:30.736Z,18.50
2023-02-12T03:41:41.226Z,18.77
2023-02-12T03:44:44.690Z,18.27
2023-02-12T03:46:11.101Z,17.43
2023-02-12T03:47:27.602Z,18.53
2023-02-12T03:48:46.675Z,17.87
2023-02-12T03:49:53.875Z,18.50
2023-02-12T03:50:34.276Z,19.37
2023-02-12T03:51:34.926Z,19.20
2023-02-12T03:52:51.850Z,18.93
2023-02-12T03:53:33.745Z,18.10
2023-02-12T03:54:18.849Z,17.60
2023-02-12T03:55:00.880Z,17.90
2023-02-12T03:55:45.920Z,18.67
2023-02-12T03:57:30.632Z,18.47
2023-02-12T03:58:17.416Z,18.50
2023-02-12T03:58:56.759Z,18.50
2023-02-12T03:59:41.225Z,18.03
2023-02-12T04:01:11.422Z,19.60
2023-02-12T04:01:53.540Z,19.67
2023-02-12T04:03:16.194Z,20.03
2023-02-12T04:05:27.966Z,20.07
2023-02-12T04:06:07.432Z,20.03
2023-02-12T04:06:49.400Z,19.73
2023-02-12T04:07:55.826Z,19.33
2023-02-12T04:09:17.697Z,20.17
2023-02-12T04:10:43.120Z,19.23
2023-02-12T04:12:05.206Z,19.93
2023-02-12T04:13:03.959Z,19.50
2023-02-12T04:13:56.485Z,19.70
2023-02-12T04:14:41.765Z,19.40
2023-02-12T04:15:44.996Z,19.40
2023-02-12T04:16:25.362Z,20.40
2023-02-12T04:17:14.535Z,19.07
2023-02-12T04:18:07.538Z,19.37
2023-02-12T04:18:50.006Z,19.43
2023-02-12T04:20:08.696Z,19.57
2023-02-12T04:20:55.518Z,20.20
2023-02-12T04:21:50.343Z,19.87
2023-02-12T04:22:45.425Z,19.10
2023-02-12T04:24:08.940Z,20.37
2023-02-12T04:25:28.091Z,19.50
2023-02-12T04:27:47.525Z,20.10
2023-02-12T04:28:54.120Z,20.27
2023-02-12T04:31:23.638Z,20.03
2023-02-12T04:32:16.867Z,20.50
2023-02-12T04:34:18.546Z,20.53
2023-02-12T04:35:27.084Z,20.30
2023-02-12T04:36:46.247Z,20.60
2023-02-12T04:37:34.328Z,20.97
2023-02-12T04:39:03.683Z,20.50
2023-02-12T04:40:22.496Z,19.90
2023-02-12T04:42:46.812Z,19.57
2023-02-12T04:44:20.482Z,20.10
2023-02-12T04:44:59.966Z,20.70
2023-02-12T04:46:04.049Z,20.73
2023-02-12T04:46:44.664Z,20.73
2023-02-12T04:48:20.401Z,21.50
2023-02-12T04:49:42.696Z,20.73
2023-02-12T04:50:25.888Z,21.13
2023-02-12T04:51:05.675Z,21.00
2023-02-12T04:52:09.462Z,21.27
2023-02-12T04:53:39.345Z,20.63
2023-02-12T04:54:21.072Z,20.83
2023-02-12T04:55:42.877Z,21.07
2023-02-12T04:58:23.703Z,21.67
2023-02-12T04:59:02.792Z,21.13
2023-02-12T04:59:42.958Z,21.33
2023-02-12T05:01:02.358Z,21.13
2023-02-12T05:02:45.702Z,21.17
2023-02-12T05:04:15.259Z,20.80
2023-02-12T05:05:02.634Z,21.83
2023-02-12T05:05:41.769Z,22.20
2023-02-12T05:06:23.752Z,21.53
2023-02-12T05:07:11.952Z,21.00
2023-02-12T05:07:51.619Z,21.93
2023-02-12T05:08:30.725Z,21.30
2023-02-12T05:09:22.606Z,21.43
2023-02-12T05:10:05.115Z,20.73
2023-02-12T05:10:45.022Z,21.30
2023-02-12T05:11:24.735Z,20.77
2023-02-12T05:12:03.714Z,21.27
2023-02-12T05:12:46.461Z,20.90
2023-02-12T05:13:35.908Z,21.13
2023-02-12T05:14:15.945Z,21.27
2023-02-12T05:15:20.086Z,21.67
2023-02-12T05:15:59.465Z,22.67
2023-02-12T05:16:38.779Z,22.20
2023-02-12T05:17:17.804Z,21.97
2023-02-12T05:19:01.709Z,21.50
2023-02-12T05:19:41.252Z,21.70
2023-02-12T05:20:21.648Z,21.33
2023-02-12T05:21:04.897Z,20.90
2023-02-12T05:23:13.768Z,21.17
2023-02-12T05:23:53.940Z,20.73
2023-02-12T05:24:33.708Z,20.83
2023-02-12T05:25:25.476Z,21.67
2023-02-12T05:26:12.280Z,21.43
2023-02-12T05:26:51.933Z,20.93
2023-02-12T05:27:30.693Z,21.60
2023-02-12T05:28:19.733Z,21.07
2023-02-12T05:28:59.957Z,21.40
2023-02-12T05:29:42.275Z,21.43
2023-02-12T05:30:22.880Z,21.03
2023-02-12T05:31:42.059Z,22.03
2023-02-12T05:33:00.114Z,22.37
2023-02-12T05:34:43.484Z,21.13
2023-02-12T05:35:47.301Z,21.97
2023-02-12T05:38:23.077Z,21.17
2023-02-12T05:41:07.304Z,21.57
2023-02-12T05:41:47.912Z,21.33
2023-02-12T05:42:26.732Z,20.47
2023-02-12T05:43:30.130Z,21.53
2023-02-12T05:44:12.165Z,21.60
2023-02-12T05:44:54.654Z,21.33
2023-02-12T05:45:33.895Z,21.40
2023-02-12T05:46:14.293Z,21.37
2023-02-12T05:47:06.603Z,21.43
2023-02-12T05:47:48.729Z,21.93
2023-02-12T05:48:30.067Z,21.67
2023-02-12T05:49:34.769Z,21.20
2023-02-12T05:51:08.750Z,21.07
2023-02-12T05:51:50.995Z,20.23
2023-02-12T05:53:15.508Z,22.17
2023-02-12T05:54:01.016Z,21.77
2023-02-12T05:54:40.708Z,21.50
2023-02-12T05:55:29.489Z,21.27
2023-02-12T05:56:34.323Z,20.70
2023-02-12T05:57:40.132Z,21.33
2023-02-12T05:58:20.973Z,21.73
2023-02-12T06:01:33.222Z,22.53
2023-02-12T06:02:15.557Z,22.13
2023-02-12T06:02:54.793Z,22.50
2023-02-12T06:04:14.313Z,22.53
2023-02-12T06:04:55.189Z,22.80
2023-02-12T06:08:25.633Z,20.53
2023-02-12T06:09:05.643Z,20.63
2023-02-12T06:09:57.481Z,21.73
2023-02-12T06:10:37.447Z,21.47
2023-02-12T06:11:24.954Z,21.40
2023-02-12T06:12:06.722Z,21.57
2023-02-12T06:13:10.729Z,21.27
2023-02-12T06:14:31.542Z,21.13
2023-02-12T06:16:32.090Z,21.70
2023-02-12T06:17:14.715Z,20.37
2023-02-12T06:17:54.932Z,21.53
2023-02-12T06:18:37.776Z,20.83
2023-02-12T06:19:41.170Z,20.60
2023-02-12T06:20:21.790Z,21.97
2023-02-12T06:21:39.985Z,20.80
2023-02-12T06:22:20.409Z,20.63
2023-02-12T06:23:24.960Z,21.77
2023-02-12T06:25:13.708Z,20.27
2023-02-12T06:26:35.677Z,21.50
2023-02-12T06:27:14.638Z,20.87
2023-02-12T06:27:56.902Z,20.50
2023-02-12T06:28:37.590Z,20.90
2023-02-12T06:32:13.857Z,19.93
2023-02-12T06:32:55.702Z,19.17
2023-02-12T06:33:35.731Z,19.80
2023-02-12T06:34:19.306Z,20.43
2023-02-12T06:34:57.316Z,20.77
2023-02-12T06:35:37.194Z,20.30
2023-02-12T06:36:29.874Z,19.97
2023-02-12T06:37:12.817Z,19.77
2023-02-12T06:38:01.622Z,19.57
2023-02-12T06:38:51.096Z,18.97
2023-02-12T06:39:35.157Z,19.87
2023-02-12T06:40:14.279Z,19.67
2023-02-12T06:40:53.770Z,18.93
2023-02-12T06:42:19.932Z,20.53
2023-02-12T06:43:00.167Z,20.13
2023-02-12T06:43:38.778Z,20.07
2023-02-12T06:44:17.748Z,20.07
2023-02-12T06:44:57.874Z,20.97
2023-02-12T06:45:46.563Z,20.67
2023-02-12T06:46:50.174Z,18.93
2023-02-12T06:48:12.034Z,19.37
2023-02-12T06:48:55.852Z,18.80
2023-02-12T06:49:35.682Z,19.50
2023-02-12T06:50:17.936Z,19.97
2023-02-12T06:51:36.489Z,20.37
2023-02-12T06:52:16.415Z,19.20
2023-02-12T06:52:59.311Z,19.43
2023-02-12T06:53:43.023Z,19.80
2023-02-12T06:54:25.296Z,20.30
2023-02-12T06:55:08.576Z,20.20
2023-02-12T06:55:50.639Z,20.67
2023-02-12T06:56:31.005Z,21.03
2023-02-12T06:57:10.918Z,20.23
2023-02-12T06:58:14.361Z,19.47
2023-02-12T07:00:32.695Z,19.17
2023-02-12T07:01:24.144Z,18.60
2023-02-12T07:02:36.256Z,18.07
2023-02-12T07:03:19.934Z,18.60
2023-02-12T07:03:52.954Z,18.47
2023-02-12T07:05:11.732Z,17.77
2023-02-12T07:06:00.642Z,18.73
2023-02-12T07:06:47.909Z,18.37
2023-02-12T07:08:47.171Z,18.47
2023-02-12T07:10:17.059Z,18.93
2023-02-12T07:10:59.766Z,18.57
2023-02-12T07:11:39.902Z,18.77
2023-02-12T07:12:20.090Z,17.93
2023-02-12T07:13:38.481Z,17.77
2023-02-12T07:15:03.828Z,18.57
2023-02-12T07:15:57.091Z,18.47
2023-02-12T07:17:03.915Z,18.33
2023-02-12T07:18:33.717Z,17.57
2023-02-12T07:19:14.304Z,17.33
2023-02-12T07:21:54.081Z,17.67
2023-02-12T07:22:33.318Z,17.50
2023-02-12T07:23:14.306Z,16.87
2023-02-12T07:26:13.115Z,16.90
2023-02-12T07:27:19.362Z,17.23
2023-02-12T07:27:59.364Z,17.13
2023-02-12T07:28:42.615Z,18.30
2023-02-12T07:29:21.659Z,18.50
2023-02-12T07:30:08.811Z,16.07
2023-02-12T07:30:48.779Z,17.23
2023-02-12T07:31:55.696Z,17.00
2023-02-12T07:32:35.999Z,17.37
2023-02-12T07:33:19.150Z,17.13
2023-02-12T07:34:22.830Z,17.63
2023-02-12T07:37:42.413Z,17.87
2023-02-12T07:38:39.590Z,17.30
2023-02-12T07:39:22.030Z,17.00
2023-02-12T07:40:09.120Z,16.83
2023-02-12T07:40:51.725Z,16.87
2023-02-12T07:41:35.332Z,16.73
2023-02-12T07:42:15.336Z,16.10
2023-02-12T07:42:56.267Z,16.27
2023-02-12T07:45:08.111Z,16.90
2023-02-12T07:45:39.868Z,16.23
2023-02-12T07:46:57.769Z,16.73
2023-02-12T07:47:41.939Z,16.53
2023-02-12T07:49:05.678Z,16.10
2023-02-12T07:50:48.674Z,16.63
2023-02-12T07:51:28.310Z,16.00
2023-02-12T07:52:32.283Z,16.90
2023-02-12T07:53:14.784Z,16.90
2023-02-12T07:53:57.790Z,16.77
2023-02-12T07:54:39.041Z,16.77
2023-02-12T07:55:18.386Z,17.30
2023-02-12T07:57:36.564Z,16.53
2023-02-12T07:58:18.662Z,18.30
2023-02-12T07:59:22.437Z,17.87
2023-02-12T08:02:39.628Z,16.57
2023-02-12T08:04:38.766Z,17.00
2023-02-12T08:05:20.929Z,17.00
2023-02-12T08:07:35.081Z,16.73
2023-02-12T08:08:24.622Z,16.97
2023-02-12T08:10:11.092Z,16.77
2023-02-12T08:10:49.323Z,16.43
2023-02-12T08:11:30.990Z,16.77
2023-02-12T08:12:41.052Z,15.87
2023-02-12T08:13:19.807Z,16.03
2023-02-12T08:16:06.933Z,15.63
2023-02-12T08:17:49.448Z,15.80
2023-02-12T08:18:32.164Z,16.23
2023-02-12T08:20:41.393Z,15.97
2023-02-12T08:21:19.421Z,16.27
2023-02-12T08:22:23.686Z,15.93
2023-02-12T08:23:55.075Z,17.17
2023-02-12T08:24:34.826Z,16.20
2023-02-12T08:25:23.572Z,16.30
2023-02-12T08:26:14.111Z,15.03
2023-02-12T08:26:56.036Z,15.90
2023-02-12T08:27:44.612Z,15.93
2023-02-12T08:28:23.846Z,15.77
2023-02-12T08:29:40.343Z,15.47
2023-02-12T08:30:25.339Z,15.57
2023-02-12T08:31:47.593Z,16.30
2023-02-12T08:32:57.595Z,15.87
2023-02-12T08:33:47.330Z,16.37
2023-02-12T08:34:35.437Z,15.83
2023-02-12T08:35:14.861Z,15.63
2023-02-12T08:36:02.470Z,15.47
2023-02-12T08:37:05.537Z,15.13
2023-02-12T08:37:44.977Z,15.67
2023-02-12T08:39:09.791Z,14.53
2023-02-12T08:39:51.815Z,15.20
2023-02-12T08:40:43.646Z,14.17
2023-02-12T08:41:31.312Z,14.17
2023-02-12T08:42:35.419Z,14.67
2023-02-12T08:44:06.609Z,13.70
2023-02-12T08:45:10.462Z,14.93
2023-02-12T08:47:40.517Z,14.73
2023-02-12T08:48:26.743Z,15.20
2023-02-12T08:49:13.553Z,14.70
2023-02-12T08:50:17.454Z,15.03
2023-02-12T08:51:41.619Z,13.70
2023-02-12T08:53:02.349Z,13.43
2023-02-12T08:53:45.543Z,13.93
2023-02-12T08:54:48.887Z,14.67
2023-02-12T08:55:52.934Z,13.73
2023-02-12T08:58:36.000Z,14.33
2023-02-12T08:59:27.696Z,13.77
2023-02-12T09:00:15.156Z,14.33
2023-02-12T09:00:56.241Z,14.47
2023-02-12T09:01:39.491Z,13.50
2023-02-12T09:02:18.800Z,13.77
2023-02-12T09:03:00.295Z,13.60
2023-02-12T09:03:39.900Z,13.23
2023-02-12T09:04:22.461Z,13.80
2023-02-12T09:05:05.995Z,14.27
2023-02-12T09:05:44.692Z,14.97
2023-02-12T09:06:25.787Z,14.53
2023-02-12T09:07:12.657Z,14.97
2023-02-12T09:07:53.893Z,15.03
2023-02-12T09:08:33.950Z,14.20
2023-02-12T09:09:15.178Z,14.80
2023-02-12T09:13:28.599Z,14.50
2023-02-12T09:14:12.392Z,14.63
2023-02-12T09:16:35.358Z,13.90
2023-02-12T09:17:41.272Z,14.97
2023-02-12T09:19:04.743Z,14.77
2023-02-12T09:19:46.872Z,14.53
2023-02-12T09:20:27.777Z,14.77
2023-02-12T09:21:12.908Z,14.07
2023-02-12T09:21:56.487Z,14.47
2023-02-12T09:22:38.260Z,14.47
2023-02-12T09:23:25.609Z,14.63
2023-02-12T09:24:04.921Z,14.13
2023-02-12T09:24:47.806Z,14.07
2023-02-12T09:26:06.898Z,15.07
2023-02-12T09:26:58.690Z,14.70
2023-02-12T09:27:37.720Z,14.67
2023-02-12T09:28:16.747Z,14.77
2023-02-12T09:28:59.002Z,13.93
2023-02-12T09:29:38.768Z,14.07
2023-02-12T09:30:20.844Z,14.30
2023-02-12T09:30:59.995Z,14.10
2023-02-12T09:31:41.881Z,14.60
2023-02-12T09:32:33.651Z,14.47
2023-02-12T09:33:16.042Z,14.53
2023-02-12T09:34:07.065Z,14.47
2023-02-12T09:34:44.842Z,14.40
2023-02-12T09:35:24.877Z,14.57
2023-02-12T09:36:14.885Z,14.10
2023-02-12T09:37:08.622Z,14.37
2023-02-12T09:38:14.443Z,14.27
2023-02-12T09:38:54.351Z,13.83
2023-02-12T09:39:37.095Z,13.70
2023-02-12T09:40:54.405Z,13.70
2023-02-12T09:42:37.766Z,13.13
2023-02-12T09:44:04.949Z,13.67
2023-02-12T09:45:08.701Z,14.00
2023-02-12T09:46:02.096Z,14.30
2023-02-12T09:48:03.445Z,14.33
2023-02-12T09:49:55.554Z,13.63
2023-02-12T09:51:16.402Z,14.03
2023-02-12T09:53:04.594Z,14.57
2023-02-12T09:53:55.740Z,14.37
2023-02-12T09:56:06.662Z,14.13
2023-02-12T09:57:37.923Z,14.07
2023-02-12T09:58:18.497Z,14.43
2023-02-12T09:59:02.959Z,14.67
2023-02-12T09:59:41.472Z,14.10
2023-02-12T10:00:32.260Z,14.17
2023-02-12T10:01:11.986Z,13.67
2023-02-12T10:01:50.952Z,14.30
2023-02-12T10:02:29.993Z,13.77
2023-02-12T10:03:18.796Z,14.37
2023-02-12T10:03:59.856Z,14.37
2023-02-12T10:04:58.730Z,14.90
2023-02-12T10:06:54.126Z,15.43
2023-02-12T10:07:34.400Z,14.80
2023-02-12T10:08:29.895Z,15.17
2023-02-12T10:09:24.824Z,15.10
2023-02-12T10:10:15.503Z,14.90
2023-02-12T10:11:10.414Z,15.20
2023-02-12T10:12:09.251Z,15.50
2023-02-12T10:13:04.146Z,14.80
2023-02-12T10:13:42.369Z,15.27
2023-02-12T10:14:38.024Z,14.70
2023-02-12T10:16:13.549Z,15.00
2023-02-12T10:17:43.945Z,15.27
2023-02-12T10:18:32.736Z,15.00
2023-02-12T10:19:45.308Z,14.87
2023-02-12T10:22:18.869Z,14.07
2023-02-12T10:23:38.423Z,14.70
2023-02-12T10:26:23.825Z,15.57
2023-02-12T10:28:39.321Z,15.00
2023-02-12T10:29:21.737Z,14.90
2023-02-12T10:30:04.202Z,14.90
2023-02-12T10:31:13.572Z,14.00
2023-02-12T10:32:35.785Z,14.77
2023-02-12T10:33:26.104Z,14.50
2023-02-12T10:34:22.691Z,15.20
2023-02-12T10:35:14.904Z,14.90
2023-02-12T10:36:35.360Z,14.80
2023-02-12T10:37:40.282Z,14.30
2023-02-12T10:39:51.366Z,14.53
2023-02-12T10:40:34.138Z,14.37
2023-02-12T10:41:29.141Z,14.90
2023-02-12T10:42:38.570Z,14.27
2023-02-12T10:44:49.734Z,13.57
2023-02-12T10:45:29.379Z,13.77
2023-02-12T10:46:17.718Z,14.30
2023-02-12T10:49:08.886Z,13.60
2023-02-12T10:49:56.707Z,13.47
2023-02-12T10:51:09.063Z,13.50
2023-02-12T10:52:08.505Z,13.37
2023-02-12T10:53:03.389Z,12.97
2023-02-12T10:53:53.710Z,12.90
2023-02-12T10:55:37.021Z,12.93
2023-02-12T10:57:07.348Z,12.93
2023-02-12T10:57:55.214Z,12.83
2023-02-12T10:58:34.048Z,12.87
2023-02-12T10:59:24.216Z,13.03
2023-02-12T11:00:25.178Z,13.30
2023-02-12T11:01:05.382Z,12.83
2023-02-12T11:02:23.635Z,14.27
2023-02-12T11:03:12.609Z,13.40
2023-02-12T11:03:52.560Z,13.43
2023-02-12T11:04:33.611Z,13.13
2023-02-12T11:05:26.542Z,12.90
2023-02-12T11:06:18.498Z,13.30
2023-02-12T11:07:01.791Z,14.00
2023-02-12T11:07:50.269Z,13.37
2023-02-12T11:08:34.478Z,13.63
2023-02-12T11:09:27.910Z,12.90
2023-02-12T11:10:32.073Z,12.43
2023-02-12T11:11:18.596Z,13.27
2023-02-12T11:12:21.951Z,12.70
2023-02-12T11:14:18.488Z,12.93
2023-02-12T11:15:48.030Z,13.50
2023-02-12T11:18:07.739Z,12.50
2023-02-12T11:18:49.784Z,13.30
2023-02-12T11:19:34.502Z,13.13
2023-02-12T11:20:14.629Z,13.03
2023-02-12T11:21:03.763Z,12.33
2023-02-12T11:23:01.861Z,12.03
2023-02-12T11:24:34.165Z,12.93
2023-02-12T11:26:19.999Z,13.30
2023-02-12T11:27:24.443Z,12.67
2023-02-12T11:28:17.247Z,12.73
2023-02-12T11:29:02.750Z,12.97
2023-02-12T11:29:44.712Z,12.93
2023-02-12T11:30:33.771Z,12.73
2023-02-12T11:31:15.886Z,12.57
2023-02-12T11:32:03.316Z,13.07
2023-02-12T11:32:44.427Z,12.43
2023-02-12T11:34:06.423Z,12.87
2023-02-12T11:35:37.071Z,11.50
2023-02-12T11:36:25.097Z,12.37
2023-02-12T11:37:15.423Z,11.63
2023-02-12T11:37:59.056Z,11.87
2023-02-12T11:39:03.179Z,11.27
2023-02-12T11:40:33.907Z,11.33
2023-02-12T11:42:20.160Z,12.20
2023-02-12T11:43:40.112Z,11.57
2023-02-12T11:44:28.908Z,10.77
2023-02-12T11:45:18.443Z,11.03
2023-02-12T11:46:01.204Z,11.60
2023-02-12T11:46:52.022Z,10.73
2023-02-12T11:47:55.219Z,11.30
2023-02-12T11:49:22.904Z,10.33
2023-02-12T11:50:08.986Z,11.00
2023-02-12T11:50:55.234Z,10.80
2023-02-12T11:51:37.705Z,10.53
2023-02-12T11:52:25.710Z,10.03
2023-02-12T11:53:09.677Z,10.20
2023-02-12T11:53:54.958Z,10.93
2023-02-12T11:54:49.169Z,10.50
2023-02-12T11:56:14.236Z,10.70
2023-02-12T11:57:43.729Z,10.70
2023-02-12T11:58:29.459Z,11.03
2023-02-12T11:59:27.652Z,10.43
2023-02-12T12:00:18.199Z,9.87
2023-02-12T12:00:58.669Z,10.17
2023-02-12T12:01:41.936Z,10.73
2023-02-12T12:02:21.561Z,10.33
2023-02-12T12:03:20.065Z,10.63
2023-02-12T12:04:00.636Z,9.47
2023-02-12T12:04:42.057Z,10.27
2023-02-12T12:05:36.534Z,9.50
2023-02-12T12:07:15.148Z,10.10
2023-02-12T12:10:13.634Z,11.30
2023-02-12T12:11:02.429Z,10.57
2023-02-12T12:12:09.156Z,10.47
2023-02-12T12:13:39.038Z,9.97
2023-02-12T12:14:27.550Z,9.90
2023-02-12T12:15:29.376Z,10.10
2023-02-12T12:16:58.463Z,9.97
2023-02-12T12:19:29.953Z,8.83
2023-02-12T12:20:29.897Z,10.23
2023-02-12T12:21:08.457Z,9.47
2023-02-12T12:22:11.330Z,9.57
2023-02-12T12:22:58.127Z,9.47
2023-02-12T12:23:49.964Z,8.80
2023-02-12T12:24:48.473Z,9.47
2023-02-12T12:25:43.885Z,9.50
2023-02-12T12:26:29.525Z,9.20
2023-02-12T12:27:17.452Z,9.53
2023-02-12T12:28:09.691Z,9.83
2023-02-12T12:29:17.975Z,9.50
2023-02-12T12:30:01.149Z,10.33
2023-02-12T12:30:58.379Z,10.23
2023-02-12T12:31:42.885Z,10.30
2023-02-12T12:32:26.671Z,10.17
2023-02-12T12:33:16.406Z,9.57
2023-02-12T12:34:15.216Z,10.00
2023-02-12T12:35:01.936Z,10.47
2023-02-12T12:36:00.176Z,9.93
2023-02-12T12:37:19.404Z,10.33
2023-02-12T12:38:17.112Z,10.23
2023-02-12T12:39:23.215Z,11.07
2023-02-12T12:40:05.788Z,11.00
2023-02-12T12:41:01.931Z,11.17
2023-02-12T12:42:30.491Z,10.87
2023-02-12T12:43:21.049Z,10.93
2023-02-12T12:45:56.449Z,10.93
2023-02-12T12:46:56.451Z,11.40
2023-02-12T12:47:54.887Z,10.73
2023-02-12T12:49:12.666Z,11.10
2023-02-12T12:51:28.662Z,11.57
2023-02-12T12:52:10.308Z,11.30
2023-02-12T12:52:55.799Z,11.23
2023-02-12T12:53:54.380Z,12.00
2023-02-12T12:54:55.886Z,12.30
2023-02-12T12:56:18.387Z,11.73
2023-02-12T12:57:17.037Z,11.77
2023-02-12T12:58:05.785Z,11.70
2023-02-12T12:59:55.097Z,10.63
2023-02-12T13:00:39.931Z,11.70
2023-02-12T13:01:41.366Z,11.03
2023-02-12T13:02:56.380Z,10.93
2023-02-12T13:04:26.463Z,11.17
2023-02-12T13:05:29.689Z,11.33
2023-02-12T13:06:37.521Z,11.27
2023-02-12T13:07:58.850Z,11.20
2023-02-12T13:09:01.384Z,11.30
2023-02-12T13:09:43.908Z,10.47
2023-02-12T13:11:00.836Z,11.17
2023-02-12T13:11:59.226Z,11.67
2023-02-12T13:12:57.471Z,11.23
2023-02-12T13:13:52.220Z,11.60
2023-02-12T13:15:32.679Z,11.60
2023-02-12T13:16:27.806Z,12.07
2023-02-12T13:17:09.195Z,12.13
2023-02-12T13:18:03.577Z,11.73
2023-02-12T13:19:10.565Z,12.17
2023-02-12T13:20:15.483Z,11.90
2023-02-12T13:21:14.990Z,12.10
2023-02-12T13:22:26.309Z,11.50
2023-02-12T13:24:02.534Z,13.00
2023-02-12T13:24:41.510Z,12.83
2023-02-12T13:25:44.635Z,12.93
2023-02-12T13:26:44.604Z,12.47
2023-02-12T13:28:04.891Z,11.73
2023-02-12T13:29:08.300Z,12.90
2023-02-12T13:30:11.639Z,13.00
2023-02-12T13:31:09.391Z,12.30
2023-02-12T13:32:10.576Z,12.70
2023-02-12T13:33:03.460Z,12.10
2023-02-12T13:34:14.605Z,12.53
2023-02-12T13:36:01.881Z,11.90
2023-02-12T13:37:24.436Z,12.47
2023-02-12T13:38:34.626Z,12.37
2023-02-12T13:41:32.133Z,12.53
2023-02-12T13:44:06.838Z,11.50
2023-02-12T13:45:48.113Z,11.67
2023-02-12T13:47:24.538Z,12.13
2023-02-12T13:48:24.173Z,12.07
2023-02-12T13:49:21.954Z,11.87
2023-02-12T13:50:23.842Z,12.60
2023-02-12T13:51:31.198Z,11.63
2023-02-12T13:53:02.931Z,11.77
2023-02-12T13:53:56.962Z,11.67
2023-02-12T13:55:11.417Z,12.23
2023-02-12T13:56:27.841Z,11.53
2023-02-12T13:57:22.135Z,11.10
2023-02-12T13:59:34.834Z,10.83
2023-02-12T14:00:50.763Z,9.70
2023-02-12T14:02:26.398Z,10.30
2023-02-12T14:03:10.848Z,9.13
2023-02-12T14:04:14.917Z,9.73
2023-02-12T14:05:02.683Z,9.80